ZKEOX NZAR-NZAR

Flight info

Callsign ZKEOX
Flight time 0h 29m
Altitude 4000
Route HUNTY
Aircraft C172/L-SFG/C

Departure

Time 2026-04-26 07:44
Airport Ardmore Airport (NZAR)

Arrival

Time 2026-04-26 08:14
Airport Ardmore Airport (NZAR)
Time Latitude Longitude Altitude Speed Heading
2026-04-26 07:27 -37.03176 174.97037 108 ft 0 kts 242°
2026-04-26 07:34 -37.03172 174.97023 109 ft 1 kts 340°
2026-04-26 07:34 -37.03162 174.97056 108 ft 7 kts 145°
2026-04-26 07:34 -37.03198 174.97086 109 ft 5 kts 142°
2026-04-26 07:35 -37.03224 174.97113 109 ft 4 kts 136°
2026-04-26 07:35 -37.03231 174.97123 109 ft 2 kts 136°
2026-04-26 07:35 -37.03266 174.97149 110 ft 0 kts 143°
2026-04-26 07:36 -37.03275 174.97157 110 ft 7 kts 143°
2026-04-26 07:36 -37.03332 174.97208 109 ft 10 kts 133°
2026-04-26 07:36 -37.03305 174.97271 109 ft 8 kts 41°
2026-04-26 07:36 -37.03269 174.97313 109 ft 6 kts 35°
2026-04-26 07:37 -37.03243 174.97349 109 ft 7 kts 46°
2026-04-26 07:37 -37.03188 174.97416 110 ft 14 kts 43°
2026-04-26 07:37 -37.03124 174.97500 109 ft 13 kts 47°
2026-04-26 07:37 -37.03066 174.97572 109 ft 11 kts 44°
2026-04-26 07:38 -37.03017 174.97637 109 ft 9 kts 37°
2026-04-26 07:38 -37.02973 174.97690 109 ft 9 kts 43°
2026-04-26 07:38 -37.02928 174.97748 108 ft 11 kts 41°
2026-04-26 07:38 -37.02864 174.97827 108 ft 13 kts 43°
2026-04-26 07:39 -37.02814 174.97909 108 ft 12 kts 88°
2026-04-26 07:39 -37.02808 174.98002 107 ft 6 kts 14°
2026-04-26 07:39 -37.02802 174.97989 107 ft 0 kts 230°
2026-04-26 07:41 -37.02807 174.97986 108 ft 6 kts 194°
2026-04-26 07:41 -37.02815 174.98060 107 ft 10 kts 89°
2026-04-26 07:41 -37.02815 174.98086 107 ft 0 kts 90°
2026-04-26 07:41 -37.02816 174.98126 107 ft 13 kts 92°
2026-04-26 07:42 -37.02790 174.98136 107 ft 9 kts 329°
2026-04-26 07:42 -37.02726 174.98091 108 ft 10 kts 334°
2026-04-26 07:42 -37.02696 174.98071 108 ft 0 kts 333°
2026-04-26 07:42 -37.02662 174.98046 108 ft 11 kts 319°
2026-04-26 07:43 -37.02647 174.98004 109 ft 0 kts 227°
2026-04-26 07:43 -37.02711 174.97917 109 ft 42 kts 226°
2026-04-26 07:44 -37.03041 174.97522 198 ft 80 kts 230°
2026-04-26 07:44 -37.03454 174.96942 364 ft 94 kts 229°
2026-04-26 07:44 -37.03942 174.96393 625 ft 96 kts 219°
2026-04-26 07:44 -37.04505 174.95906 800 ft 96 kts 214°
2026-04-26 07:45 -37.05074 174.95476 886 ft 96 kts 214°
2026-04-26 07:45 -37.05635 174.95067 988 ft 94 kts 212°
2026-04-26 07:45 -37.06270 174.94849 998 ft 103 kts 171°
2026-04-26 07:45 -37.06891 174.95337 998 ft 104 kts 154°
2026-04-26 07:46 -37.07545 174.95588 990 ft 96 kts 184°
2026-04-26 07:46 -37.08175 174.95374 998 ft 101 kts 209°
2026-04-26 07:46 -37.08846 174.95023 996 ft 107 kts 206°
2026-04-26 07:46 -37.09568 174.94864 985 ft 107 kts 181°
2026-04-26 07:47 -37.10302 174.95031 983 ft 111 kts 161°
2026-04-26 07:47 -37.11006 174.95460 995 ft 112 kts 159°
2026-04-26 07:47 -37.11694 174.95832 991 ft 104 kts 165°
2026-04-26 07:47 -37.12355 174.96172 986 ft 101 kts 162°
2026-04-26 07:48 -37.13001 174.96506 1011 ft 99 kts 163°
2026-04-26 07:48 -37.13607 174.96824 1102 ft 91 kts 162°
2026-04-26 07:48 -37.14173 174.97134 1192 ft 89 kts 162°
2026-04-26 07:48 -37.14730 174.97422 1305 ft 84 kts 171°
2026-04-26 07:49 -37.15287 174.97614 1429 ft 83 kts 171°
2026-04-26 07:49 -37.15836 174.97807 1552 ft 81 kts 171°
2026-04-26 07:49 -37.16372 174.98006 1684 ft 80 kts 171°
2026-04-26 07:50 -37.17628 174.98463 1966 ft 100 kts 171°
2026-04-26 07:50 -37.18318 174.98737 1994 ft 109 kts 165°
2026-04-26 07:50 -37.19035 174.99111 1992 ft 110 kts 165°
2026-04-26 07:50 -37.19736 174.99477 1991 ft 107 kts 165°
2026-04-26 07:51 -37.20425 174.99840 1989 ft 107 kts 164°
2026-04-26 07:51 -37.21080 175.00274 1984 ft 111 kts 146°
2026-04-26 07:51 -37.21590 175.01041 1978 ft 116 kts 133°
2026-04-26 07:51 -37.22031 175.01876 1979 ft 117 kts 129°
2026-04-26 07:52 -37.22404 175.02803 2014 ft 121 kts 123°
2026-04-26 07:52 -37.22769 175.03756 2092 ft 122 kts 123°
2026-04-26 07:52 -37.23135 175.04710 2174 ft 118 kts 124°
2026-04-26 07:52 -37.23469 175.05628 2245 ft 114 kts 123°
2026-04-26 07:53 -37.23785 175.06526 2316 ft 112 kts 123°
2026-04-26 07:53 -37.24104 175.07421 2313 ft 113 kts 123°
2026-04-26 07:53 -37.24428 175.08315 2326 ft 107 kts 124°
2026-04-26 07:53 -37.24631 175.08943 2486 ft 50 kts 129°
2026-04-26 07:54 -37.24845 175.09695 2090 ft 124 kts 94°
2026-04-26 07:54 -37.24302 175.10537 2190 ft 131 kts 20°
2026-04-26 07:54 -37.23447 175.10533 2335 ft 120 kts 323°
2026-04-26 07:54 -37.23442 175.10329 2318 ft 118 kts 83°
2026-04-26 07:55 -37.22673 175.10627 2151 ft 134 kts 325°
2026-04-26 07:55 -37.22362 175.10077 2314 ft 108 kts 270°
2026-04-26 07:55 -37.22940 175.09241 2462 ft 99 kts 206°
2026-04-26 07:55 -37.23567 175.09318 2617 ft 98 kts 146°
2026-04-26 07:56 -37.23779 175.09821 2706 ft 97 kts 121°
2026-04-26 07:56 -37.24026 175.10653 2857 ft 108 kts 116°
2026-04-26 07:56 -37.24212 175.11531 2997 ft 100 kts 115°
2026-04-26 07:56 -37.24377 175.12367 3143 ft 102 kts 110°
2026-04-26 07:57 -37.24268 175.13304 3289 ft 112 kts 78°
2026-04-26 07:57 -37.23871 175.14157 3363 ft 119 kts 51°
2026-04-26 07:57 -37.23159 175.14687 3356 ft 121 kts 13°
2026-04-26 07:57 -37.22344 175.14962 3358 ft 121 kts
2026-04-26 07:58 -37.21610 175.14666 3352 ft 109 kts 309°
2026-04-26 07:58 -37.21124 175.13948 3282 ft 104 kts 296°
2026-04-26 07:58 -37.20942 175.13152 3140 ft 91 kts 255°
2026-04-26 07:58 -37.21128 175.12423 3013 ft 88 kts 248°
2026-04-26 07:59 -37.21315 175.11687 2888 ft 88 kts 248°
2026-04-26 07:59 -37.21500 175.10952 2768 ft 88 kts 248°
2026-04-26 07:59 -37.21686 175.10221 2632 ft 88 kts 248°
2026-04-26 07:59 -37.21877 175.09496 2508 ft 88 kts 248°
2026-04-26 08:00 -37.22067 175.08772 2455 ft 88 kts 248°
2026-04-26 08:00 -37.22338 175.08052 2457 ft 93 kts 227°
2026-04-26 08:00 -37.22858 175.07554 2462 ft 94 kts 216°
2026-04-26 08:00 -37.23494 175.07389 2452 ft 103 kts 171°
2026-04-26 08:01 -37.24023 175.08047 2450 ft 119 kts 119°
2026-04-26 08:01 -37.24118 175.09098 2455 ft 126 kts 97°
2026-04-26 08:01 -37.23996 175.10205 2459 ft 129 kts 86°
2026-04-26 08:01 -37.23774 175.11305 2451 ft 133 kts 65°
2026-04-26 08:02 -37.23099 175.12089 2455 ft 134 kts 34°
2026-04-26 08:02 -37.22255 175.12506 2452 ft 129 kts 356°
2026-04-26 08:02 -37.21368 175.12464 2454 ft 128 kts 352°
2026-04-26 08:02 -37.20480 175.12424 2455 ft 127 kts 353°
2026-04-26 08:03 -37.19593 175.12378 2456 ft 128 kts 352°
2026-04-26 08:03 -37.18701 175.12337 2458 ft 128 kts 353°
2026-04-26 08:03 -37.17806 175.12289 2458 ft 128 kts 351°
2026-04-26 08:03 -37.16916 175.12208 2458 ft 128 kts 350°
2026-04-26 08:04 -37.16028 175.12125 2457 ft 127 kts 349°
2026-04-26 08:04 -37.15170 175.11911 2453 ft 124 kts 340°
2026-04-26 08:04 -37.14375 175.11686 2451 ft 110 kts 340°
2026-04-26 08:04 -37.13658 175.11486 2449 ft 102 kts 340°
2026-04-26 08:05 -37.12981 175.11296 2451 ft 101 kts 340°
2026-04-26 08:05 -37.12286 175.11026 2453 ft 107 kts 327°
2026-04-26 08:05 -37.11613 175.10594 2459 ft 110 kts 327°
2026-04-26 08:05 -37.10916 175.10142 2465 ft 116 kts 326°
2026-04-26 08:06 -37.10194 175.09669 2467 ft 117 kts 324°
2026-04-26 08:06 -37.09524 175.09137 2466 ft 113 kts 318°
2026-04-26 08:06 -37.08913 175.08540 2463 ft 110 kts 314°
2026-04-26 08:06 -37.08320 175.07956 2459 ft 106 kts 314°
2026-04-26 08:07 -37.07745 175.07393 2382 ft 105 kts 314°
2026-04-26 08:07 -37.07173 175.06834 2279 ft 105 kts 314°
2026-04-26 08:07 -37.06579 175.06288 2177 ft 107 kts 323°
2026-04-26 08:07 -37.05933 175.05820 2076 ft 107 kts 323°
2026-04-26 08:08 -37.05281 175.05357 1970 ft 107 kts 323°
2026-04-26 08:08 -37.04643 175.04879 1865 ft 107 kts 319°
2026-04-26 08:08 -37.04045 175.04308 1755 ft 107 kts 316°
2026-04-26 08:08 -37.03474 175.03765 1765 ft 100 kts 314°
2026-04-26 08:09 -37.03072 175.03116 1780 ft 93 kts 295°
2026-04-26 08:09 -37.02814 175.02393 1794 ft 89 kts 279°
2026-04-26 08:09 -37.02662 175.01698 1700 ft 80 kts 279°
2026-04-26 08:09 -37.02546 175.01008 1434 ft 81 kts 264°
2026-04-26 08:10 -37.02630 175.00347 1282 ft 71 kts 250°
2026-04-26 08:10 -37.02771 174.99771 1164 ft 72 kts 249°
2026-04-26 08:10 -37.02921 174.99137 1070 ft 77 kts 251°
2026-04-26 08:10 -37.03084 174.98483 978 ft 81 kts 251°
2026-04-26 08:11 -37.03276 174.97791 969 ft 91 kts 251°
2026-04-26 08:11 -37.03202 174.97010 1042 ft 104 kts 306°
2026-04-26 08:11 -37.02513 174.96740 1133 ft 111 kts
2026-04-26 08:11 -37.01789 174.97097 1223 ft 112 kts 26°
2026-04-26 08:12 -37.01164 174.97655 1326 ft 113 kts 48°
2026-04-26 08:12 -37.00734 174.98495 1331 ft 115 kts 66°
2026-04-26 08:12 -37.00310 174.99319 1444 ft 110 kts 51°
2026-04-26 08:12 -36.99865 175.00044 1498 ft 102 kts 96°
2026-04-26 08:13 -37.00249 175.00585 1313 ft 80 kts 181°
2026-04-26 08:13 -37.00769 175.00262 1049 ft 92 kts 218°
2026-04-26 08:13 -37.01278 174.99770 832 ft 92 kts 224°
2026-04-26 08:13 -37.01716 174.99213 569 ft 89 kts 230°
2026-04-26 08:14 -37.02112 174.98673 378 ft 73 kts 223°
2026-04-26 08:14 -37.02428 174.98286 234 ft 55 kts 234°
2026-04-26 08:14 -37.02665 174.97986 133 ft 47 kts 230°
2026-04-26 08:14 -37.02854 174.97739 113 ft 35 kts 224°
2026-04-26 08:15 -37.03150 174.97373 196 ft 76 kts 229°
2026-04-26 08:15 -37.03536 174.96897 430 ft 81 kts 227°
2026-04-26 08:15 -37.03952 174.96403 555 ft 82 kts 224°
2026-04-26 08:15 -37.04454 174.96269 676 ft 81 kts 147°
2026-04-26 08:16 -37.04749 174.96913 836 ft 93 kts 82°
2026-04-26 08:16 -37.04398 174.97610 979 ft 99 kts 52°
2026-04-26 08:16 -37.03964 174.98315 1044 ft 103 kts 53°
2026-04-26 08:16 -37.03509 174.99025 1123 ft 105 kts 51°
2026-04-26 08:17 -37.03046 174.99713 1244 ft 104 kts 52°
2026-04-26 08:17 -37.02588 175.00437 1312 ft 108 kts 51°
2026-04-26 08:17 -37.02107 175.01172 1345 ft 110 kts 51°
2026-04-26 08:17 -37.01603 175.01895 1405 ft 106 kts 50°
2026-04-26 08:18 -37.01081 175.02504 1472 ft 100 kts
2026-04-26 08:18 -37.00465 175.02269 1467 ft 92 kts 307°
2026-04-26 08:18 -37.00320 175.01548 1442 ft 90 kts 260°
2026-04-26 08:18 -37.00535 175.00803 1302 ft 92 kts 238°
2026-04-26 08:19 -37.00899 175.00195 1137 ft 82 kts 229°
2026-04-26 08:19 -37.01312 174.99687 852 ft 86 kts 227°
2026-04-26 08:19 -37.01733 174.99136 578 ft 86 kts 224°
2026-04-26 08:19 -37.02150 174.98642 357 ft 80 kts 234°
2026-04-26 08:20 -37.02510 174.98175 209 ft 71 kts 230°
2026-04-26 08:20 -37.02836 174.97761 120 ft 60 kts 229°
2026-04-26 08:20 -37.03089 174.97438 115 ft 45 kts 227°
2026-04-26 08:20 -37.03245 174.97244 114 ft 21 kts 227°
2026-04-26 08:21 -37.03275 174.97154 114 ft 6 kts 304°
2026-04-26 08:21 -37.03230 174.97115 112 ft 9 kts 321°
2026-04-26 08:21 -37.03183 174.97065 112 ft 8 kts 273°
2026-04-26 08:21 -37.03198 174.97017 112 ft 0 kts 244°
2026-04-26 08:47 -37.03208 174.97029 111 ft 7 kts 38°
2026-04-26 08:47 -37.03192 174.97080 111 ft 6 kts 128°
2026-04-26 08:47 -37.03227 174.97114 112 ft 8 kts 146°
2026-04-26 08:48 -37.03290 174.97168 113 ft 13 kts 151°
2026-04-26 08:48 -37.03331 174.97237 111 ft 8 kts 44°
2026-04-26 08:48 -37.03281 174.97300 111 ft 13 kts 47°
2026-04-26 08:48 -37.03214 174.97385 112 ft 13 kts 45°
2026-04-26 08:49 -37.03155 174.97467 111 ft 11 kts 52°
2026-04-26 08:49 -37.03110 174.97514 111 ft 7 kts 41°
2026-04-26 08:49 -37.03076 174.97559 111 ft 8 kts 48°
2026-04-26 08:49 -37.03031 174.97618 111 ft 11 kts 46°
2026-04-26 08:50 -37.02972 174.97692 111 ft 13 kts 44°
2026-04-26 08:50 -37.02900 174.97784 110 ft 16 kts 45°
2026-04-26 08:50 -37.02816 174.97889 111 ft 17 kts 60°
2026-04-26 08:50 -37.02815 174.98025 110 ft 15 kts 89°
2026-04-26 08:51 -37.02725 174.98090 110 ft 9 kts 333°
2026-04-26 08:51 -37.02685 174.98062 110 ft 2 kts 327°
2026-04-26 08:51 -37.02678 174.98056 110 ft 5 kts 328°
2026-04-26 08:52 -37.02646 174.98007 111 ft 7 kts 245°
2026-04-26 08:52 -37.02678 174.97964 111 ft 1 kts 226°
2026-04-26 08:53 -37.02758 174.97862 112 ft 46 kts 226°
2026-04-26 08:53 -37.03106 174.97440 218 ft 82 kts 226°
2026-04-26 08:53 -37.03528 174.96880 437 ft 93 kts 227°
2026-04-26 08:54 -37.03988 174.96335 763 ft 89 kts 213°
2026-04-26 08:54 -37.04579 174.96304 956 ft 89 kts 154°
2026-04-26 08:54 -37.04789 174.97075 972 ft 110 kts 75°
2026-04-26 08:54 -37.04261 174.97787 986 ft 115 kts 36°
2026-04-26 08:55 -37.03615 174.98416 981 ft 119 kts 37°
2026-04-26 08:55 -37.02981 174.99097 984 ft 121 kts 43°
2026-04-26 08:55 -37.02371 174.99828 986 ft 122 kts 43°
2026-04-26 08:55 -37.01756 175.00560 985 ft 121 kts 43°
2026-04-26 08:56 -37.01147 175.01287 980 ft 121 kts 43°
2026-04-26 08:56 -37.00550 175.01995 980 ft 120 kts 43°
2026-04-26 08:56 -36.99947 175.02708 977 ft 119 kts 43°
2026-04-26 08:56 -36.99341 175.03430 979 ft 119 kts 43°
2026-04-26 08:57 -36.98752 175.04130 975 ft 118 kts 43°
2026-04-26 08:57 -36.98157 175.04834 989 ft 118 kts 43°
2026-04-26 08:57 -36.97557 175.05550 979 ft 121 kts 43°
2026-04-26 08:57 -36.96947 175.06278 984 ft 122 kts 43°
2026-04-26 08:58 -36.96334 175.07007 998 ft 120 kts 42°
2026-04-26 08:58 -36.95661 175.07591 1041 ft 117 kts 23°
2026-04-26 08:58 -36.94918 175.07973 1105 ft 113 kts 14°
2026-04-26 08:58 -36.94162 175.08216 1175 ft 111 kts 12°
2026-04-26 08:59 -36.93423 175.08466 1248 ft 111 kts 12°
2026-04-26 08:59 -36.92672 175.08599 1319 ft 107 kts 358°
2026-04-26 08:59 -36.91941 175.08620 1387 ft 103 kts 350°
2026-04-26 08:59 -36.91239 175.08486 1456 ft 101 kts 346°
2026-04-26 09:00 -36.90542 175.08356 1530 ft 101 kts 346°
2026-04-26 09:00 -36.89872 175.08087 1604 ft 102 kts 323°
2026-04-26 09:00 -36.89327 175.07542 1682 ft 99 kts 305°
2026-04-26 09:00 -36.88859 175.06906 1751 ft 99 kts 307°
2026-04-26 09:01 -36.88402 175.06278 1829 ft 95 kts 306°
2026-04-26 09:01 -36.87968 175.05682 1897 ft 91 kts 306°
2026-04-26 09:01 -36.87619 175.05048 1968 ft 88 kts 289°
2026-04-26 09:01 -36.87442 175.04326 2032 ft 87 kts 278°
2026-04-26 09:02 -36.87319 175.03588 2107 ft 86 kts 268°
2026-04-26 09:02 -36.87313 175.02850 2182 ft 85 kts 266°
2026-04-26 09:02 -36.87291 175.02111 2259 ft 86 kts 270°
2026-04-26 09:02 -36.87187 175.01371 2341 ft 86 kts 275°
2026-04-26 09:03 -36.87077 175.00645 2409 ft 86 kts 275°
2026-04-26 09:03 -36.86963 174.99908 2486 ft 85 kts 275°
2026-04-26 09:03 -36.86812 174.99184 2566 ft 90 kts 284°
2026-04-26 09:03 -36.86547 174.98459 2610 ft 96 kts 288°
2026-04-26 09:04 -36.86263 174.97690 2510 ft 92 kts 289°
2026-04-26 09:04 -36.86000 174.97006 2320 ft 84 kts 289°
2026-04-26 09:04 -36.85752 174.96369 2131 ft 80 kts 289°
2026-04-26 09:04 -36.85513 174.95750 1943 ft 78 kts 288°
2026-04-26 09:05 -36.85275 174.95142 1753 ft 77 kts 289°
2026-04-26 09:05 -36.85048 174.94539 1567 ft 76 kts 289°
2026-04-26 09:05 -36.84833 174.93954 1378 ft 73 kts 289°
2026-04-26 09:05 -36.84631 174.93384 1194 ft 71 kts 288°
2026-04-26 09:06 -36.84439 174.92832 1035 ft 65 kts 288°
2026-04-26 09:06 -36.84353 174.92321 1086 ft 67 kts 275°
2026-04-26 09:06 -36.84269 174.91700 1096 ft 75 kts 276°
2026-04-26 09:06 -36.84180 174.91051 1095 ft 76 kts 276°
2026-04-26 09:07 -36.84089 174.90401 1095 ft 77 kts 276°
2026-04-26 09:07 -36.84005 174.89736 1096 ft 78 kts 272°
2026-04-26 09:07 -36.83953 174.89052 1096 ft 80 kts 272°
2026-04-26 09:07 -36.83900 174.88347 1096 ft 83 kts 272°
2026-04-26 09:08 -36.83845 174.87632 1095 ft 84 kts 272°
2026-04-26 09:08 -36.83802 174.86926 1089 ft 79 kts 272°
2026-04-26 09:08 -36.83769 174.86234 1089 ft 85 kts 268°
2026-04-26 09:08 -36.83786 174.85464 1145 ft 91 kts 267°
2026-04-26 09:09 -36.83798 174.84662 1210 ft 95 kts 267°
2026-04-26 09:09 -36.83804 174.83838 1267 ft 94 kts 267°
2026-04-26 09:09 -36.83809 174.83026 1320 ft 93 kts 267°
2026-04-26 09:09 -36.83813 174.82229 1372 ft 91 kts 267°
2026-04-26 09:10 -36.83777 174.81435 1428 ft 92 kts 276°
2026-04-26 09:10 -36.83665 174.80645 1468 ft 94 kts 276°
2026-04-26 09:10 -36.83550 174.79823 1472 ft 97 kts 276°
2026-04-26 09:10 -36.83437 174.79001 1473 ft 95 kts 274°
2026-04-26 09:11 -36.83426 174.78195 1469 ft 92 kts 266°
2026-04-26 09:11 -36.83430 174.77404 1468 ft 90 kts 269°
2026-04-26 09:11 -36.83393 174.76625 1465 ft 89 kts 270°
2026-04-26 09:11 -36.83351 174.75863 1461 ft 87 kts 269°
2026-04-26 09:12 -36.83494 174.75158 1459 ft 84 kts 240°
2026-04-26 09:12 -36.83910 174.74640 1458 ft 86 kts 219°
2026-04-26 09:12 -36.84480 174.74427 1462 ft 90 kts 188°
2026-04-26 09:12 -36.85116 174.74492 1458 ft 92 kts 175°
2026-04-26 09:13 -36.85706 174.74870 1460 ft 98 kts 156°
2026-04-26 09:13 -36.86289 174.75317 1459 ft 97 kts 156°
2026-04-26 09:13 -36.86860 174.75756 1463 ft 96 kts 156°
2026-04-26 09:13 -36.87427 174.76201 1459 ft 97 kts 148°
2026-04-26 09:14 -36.87823 174.76896 1462 ft 102 kts 114°
2026-04-26 09:14 -36.87907 174.77783 1457 ft 105 kts 91°
2026-04-26 09:14 -36.87874 174.78707 1461 ft 108 kts 92°
2026-04-26 09:14 -36.87841 174.79640 1462 ft 107 kts 92°
2026-04-26 09:15 -36.87808 174.80564 1456 ft 105 kts 92°
2026-04-26 09:15 -36.87779 174.81466 1453 ft 103 kts 92°
2026-04-26 09:15 -36.87751 174.82368 1467 ft 107 kts 92°
2026-04-26 09:15 -36.87728 174.83317 1476 ft 111 kts 92°
2026-04-26 09:16 -36.87703 174.84266 1474 ft 109 kts 91°
2026-04-26 09:16 -36.87677 174.85196 1473 ft 106 kts 92°
2026-04-26 09:16 -36.87651 174.86128 1472 ft 107 kts 92°
2026-04-26 09:16 -36.87622 174.87055 1470 ft 106 kts 93°
2026-04-26 09:17 -36.87593 174.87976 1469 ft 107 kts 91°
2026-04-26 09:17 -36.87578 174.88591 1470 ft 107 kts 92°
2026-04-26 09:17 -36.87589 174.89822 1468 ft 104 kts 99°
2026-04-26 09:17 -36.87655 174.90710 1464 ft 100 kts 111°
2026-04-26 09:18 -36.87871 174.91513 1458 ft 98 kts 115°
2026-04-26 09:18 -36.88189 174.92232 1462 ft 93 kts 137°
2026-04-26 09:18 -36.88599 174.92862 1469 ft 93 kts 136°
2026-04-26 09:18 -36.89015 174.93496 1472 ft 95 kts 136°
2026-04-26 09:19 -36.89438 174.94147 1475 ft 97 kts 136°
2026-04-26 09:19 -36.89863 174.94803 1475 ft 97 kts 136°
2026-04-26 09:19 -36.90285 174.95452 1473 ft 96 kts 136°
2026-04-26 09:19 -36.90705 174.96102 1475 ft 97 kts 136°
2026-04-26 09:20 -36.91130 174.96756 1476 ft 97 kts 136°
2026-04-26 09:20 -36.91552 174.97410 1474 ft 97 kts 136°
2026-04-26 09:20 -36.91973 174.98061 1476 ft 97 kts 136°
2026-04-26 09:20 -36.92402 174.98714 1473 ft 97 kts 136°
2026-04-26 09:21 -36.92917 174.99208 1470 ft 92 kts 160°
2026-04-26 09:21 -36.93499 174.99489 1473 ft 90 kts 172°
2026-04-26 09:21 -36.94110 174.99683 1474 ft 90 kts 173°
2026-04-26 09:21 -36.94712 174.99880 1474 ft 89 kts 172°
2026-04-26 09:22 -36.95315 175.00072 1473 ft 91 kts 172°
2026-04-26 09:22 -36.95929 175.00263 1479 ft 93 kts 172°
2026-04-26 09:22 -36.96584 175.00462 1415 ft 100 kts 173°
2026-04-26 09:22 -36.97257 175.00781 1315 ft 107 kts 158°
2026-04-26 09:23 -36.97911 175.01212 1220 ft 104 kts 159°
2026-04-26 09:23 -36.98517 175.01616 1221 ft 95 kts 158°
2026-04-26 09:23 -36.99097 175.01964 1224 ft 89 kts 173°
2026-04-26 09:23 -36.99681 175.01808 1198 ft 86 kts 217°
2026-04-26 09:24 -37.00094 175.01267 1099 ft 92 kts 225°
2026-04-26 09:24 -37.00489 175.00733 1026 ft 81 kts 237°
2026-04-26 09:24 -37.00846 175.00123 795 ft 89 kts 226°
2026-04-26 09:24 -37.01322 174.99639 629 ft 90 kts 224°
2026-04-26 09:25 -37.01787 174.99112 464 ft 89 kts 223°
2026-04-26 09:25 -37.02186 174.98579 315 ft 80 kts 227°
2026-04-26 09:25 -37.02556 174.98120 193 ft 70 kts 227°
2026-04-26 09:25 -37.02873 174.97720 118 ft 57 kts 227°
2026-04-26 09:26 -37.03107 174.97417 113 ft 36 kts 227°
2026-04-26 09:26 -37.03233 174.97261 113 ft 15 kts 228°
2026-04-26 09:26 -37.03285 174.97191 112 ft 7 kts 244°
2026-04-26 09:26 -37.03279 174.97160 112 ft 5 kts 326°
2026-04-26 09:27 -37.03237 174.97123 111 ft 6 kts 319°
2026-04-26 09:27 -37.03203 174.97092 110 ft 6 kts 322°
2026-04-26 09:27 -37.03183 174.97057 110 ft 4 kts 252°
2026-04-26 09:27 -37.03187 174.97044 110 ft 3 kts 243°
2026-04-26 09:28 -37.03204 174.97009 110 ft 5 kts 237°
2026-04-26 09:28 -37.03218 174.96981 110 ft 6 kts 244°
2026-04-26 09:28 -37.03209 174.96965 110 ft 0 kts 336°